sensor_id;sensor_type;location;lat;lon;timestamp;temperature;humidity
4103;DHT22;2065;49.790;9.620;2023-02-25T00:00:36;9.50;58.80
4103;DHT22;2065;49.790;9.620;2023-02-25T00:03:03;9.30;59.90
4103;DHT22;2065;49.790;9.620;2023-02-25T00:05:31;9.30;59.90
4103;DHT22;2065;49.790;9.620;2023-02-25T00:07:58;9.40;60.10
4103;DHT22;2065;49.790;9.620;2023-02-25T00:10:25;9.50;58.50
4103;DHT22;2065;49.790;9.620;2023-02-25T00:12:52;9.40;58.80
4103;DHT22;2065;49.790;9.620;2023-02-25T00:15:19;9.20;59.30
4103;DHT22;2065;49.790;9.620;2023-02-25T00:17:46;9.10;59.30
4103;DHT22;2065;49.790;9.620;2023-02-25T00:20:15;9.00;59.40
4103;DHT22;2065;49.790;9.620;2023-02-25T00:22:44;9.00;59.00
4103;DHT22;2065;49.790;9.620;2023-02-25T00:25:11;9.10;59.10
4103;DHT22;2065;49.790;9.620;2023-02-25T00:27:38;9.20;59.00
4103;DHT22;2065;49.790;9.620;2023-02-25T00:30:06;9.30;59.30
4103;DHT22;2065;49.790;9.620;2023-02-25T00:32:35;9.50;58.80
4103;DHT22;2065;49.790;9.620;2023-02-25T00:35:02;9.50;58.80
4103;DHT22;2065;49.790;9.620;2023-02-25T00:37:29;9.60;58.10
4103;DHT22;2065;49.790;9.620;2023-02-25T00:39:57;9.50;57.70
4103;DHT22;2065;49.790;9.620;2023-02-25T00:42:26;9.50;57.60
4103;DHT22;2065;49.790;9.620;2023-02-25T00:44:53;9.50;57.40
4103;DHT22;2065;49.790;9.620;2023-02-25T00:47:19;9.40;58.50
4103;DHT22;2065;49.790;9.620;2023-02-25T00:49:47;9.50;57.30
4103;DHT22;2065;49.790;9.620;2023-02-25T00:52:14;9.50;57.80
4103;DHT22;2065;49.790;9.620;2023-02-25T00:54:41;9.40;56.70
4103;DHT22;2065;49.790;9.620;2023-02-25T00:57:10;9.00;57.60
4103;DHT22;2065;49.790;9.620;2023-02-25T00:59:36;9.10;58.60
4103;DHT22;2065;49.790;9.620;2023-02-25T01:02:03;9.30;58.20
4103;DHT22;2065;49.790;9.620;2023-02-25T01:04:30;9.50;57.90
4103;DHT22;2065;49.790;9.620;2023-02-25T01:06:58;9.40;57.60
4103;DHT22;2065;49.790;9.620;2023-02-25T01:09:25;9.40;57.60
4103;DHT22;2065;49.790;9.620;2023-02-25T01:11:52;9.40;57.90
4103;DHT22;2065;49.790;9.620;2023-02-25T01:14:22;9.50;57.80
4103;DHT22;2065;49.790;9.620;2023-02-25T01:16:51;9.30;58.00
4103;DHT22;2065;49.790;9.620;2023-02-25T01:19:20;9.20;58.40
4103;DHT22;2065;49.790;9.620;2023-02-25T01:21:49;9.20;57.60
4103;DHT22;2065;49.790;9.620;2023-02-25T01:24:19;9.20;58.20
4103;DHT22;2065;49.790;9.620;2023-02-25T01:26:48;9.30;58.80
4103;DHT22;2065;49.790;9.620;2023-02-25T01:29:17;9.20;57.80
4103;DHT22;2065;49.790;9.620;2023-02-25T01:31:46;9.10;58.30
4103;DHT22;2065;49.790;9.620;2023-02-25T01:34:15;9.30;57.80
4103;DHT22;2065;49.790;9.620;2023-02-25T01:36:43;9.00;58.20
4103;DHT22;2065;49.790;9.620;2023-02-25T01:39:11;9.10;58.70
4103;DHT22;2065;49.790;9.620;2023-02-25T01:41:39;9.20;58.80
4103;DHT22;2065;49.790;9.620;2023-02-25T01:44:10;9.30;58.30
4103;DHT22;2065;49.790;9.620;2023-02-25T01:46:39;9.10;57.60
4103;DHT22;2065;49.790;9.620;2023-02-25T01:49:10;8.90;58.00
4103;DHT22;2065;49.790;9.620;2023-02-25T01:51:39;8.70;58.40
4103;DHT22;2065;49.790;9.620;2023-02-25T01:54:08;8.90;58.40
4103;DHT22;2065;49.790;9.620;2023-02-25T01:56:37;8.90;58.20
4103;DHT22;2065;49.790;9.620;2023-02-25T01:59:06;8.70;57.50
4103;DHT22;2065;49.790;9.620;2023-02-25T02:01:36;8.60;57.80
4103;DHT22;2065;49.790;9.620;2023-02-25T02:04:05;8.70;58.30
4103;DHT22;2065;49.790;9.620;2023-02-25T02:06:39;8.80;57.50
4103;DHT22;2065;49.790;9.620;2023-02-25T02:09:09;8.90;57.40
4103;DHT22;2065;49.790;9.620;2023-02-25T02:11:39;9.00;57.40
4103;DHT22;2065;49.790;9.620;2023-02-25T02:14:10;9.00;57.00
4103;DHT22;2065;49.790;9.620;2023-02-25T02:17:14;9.00;56.30
4103;DHT22;2065;49.790;9.620;2023-02-25T02:20:05;8.90;57.10
4103;DHT22;2065;49.790;9.620;2023-02-25T02:22:46;8.80;56.50
4103;DHT22;2065;49.790;9.620;2023-02-25T02:25:46;8.70;57.30
4103;DHT22;2065;49.790;9.620;2023-02-25T02:28:31;8.70;57.30
4103;DHT22;2065;49.790;9.620;2023-02-25T02:31:32;8.80;57.30
4103;DHT22;2065;49.790;9.620;2023-02-25T02:34:10;8.60;57.70
4103;DHT22;2065;49.790;9.620;2023-02-25T02:36:51;8.50;57.70
4103;DHT22;2065;49.790;9.620;2023-02-25T02:39:25;8.60;57.00
4103;DHT22;2065;49.790;9.620;2023-02-25T02:41:59;8.40;56.70
4103;DHT22;2065;49.790;9.620;2023-02-25T02:44:29;8.50;57.50
4103;DHT22;2065;49.790;9.620;2023-02-25T02:47:02;8.50;57.00
4103;DHT22;2065;49.790;9.620;2023-02-25T02:49:36;8.40;56.60
4103;DHT22;2065;49.790;9.620;2023-02-25T02:52:07;8.10;57.40
4103;DHT22;2065;49.790;9.620;2023-02-25T02:54:41;8.10;58.20
4103;DHT22;2065;49.790;9.620;2023-02-25T02:57:10;8.20;57.90
4103;DHT22;2065;49.790;9.620;2023-02-25T02:59:43;8.20;57.00
4103;DHT22;2065;49.790;9.620;2023-02-25T03:02:17;8.10;57.60
4103;DHT22;2065;49.790;9.620;2023-02-25T03:04:49;8.20;57.10
4103;DHT22;2065;49.790;9.620;2023-02-25T03:07:17;7.90;57.30
4103;DHT22;2065;49.790;9.620;2023-02-25T03:09:48;7.70;57.60
4103;DHT22;2065;49.790;9.620;2023-02-25T03:12:16;7.60;58.50
4103;DHT22;2065;49.790;9.620;2023-02-25T03:14:43;7.70;58.20
4103;DHT22;2065;49.790;9.620;2023-02-25T03:17:14;7.70;58.30
4103;DHT22;2065;49.790;9.620;2023-02-25T03:19:46;8.00;58.20
4103;DHT22;2065;49.790;9.620;2023-02-25T03:22:16;8.10;57.80
4103;DHT22;2065;49.790;9.620;2023-02-25T03:24:47;8.10;57.60
4103;DHT22;2065;49.790;9.620;2023-02-25T03:27:26;8.30;57.30
4103;DHT22;2065;49.790;9.620;2023-02-25T03:30:05;8.30;56.80
4103;DHT22;2065;49.790;9.620;2023-02-25T03:32:36;8.30;56.80
4103;DHT22;2065;49.790;9.620;2023-02-25T03:35:06;7.90;57.20
4103;DHT22;2065;49.790;9.620;2023-02-25T03:37:37;7.90;58.30
4103;DHT22;2065;49.790;9.620;2023-02-25T03:40:08;7.90;58.10
4103;DHT22;2065;49.790;9.620;2023-02-25T03:42:40;7.70;58.40
4103;DHT22;2065;49.790;9.620;2023-02-25T03:45:10;7.70;58.50
4103;DHT22;2065;49.790;9.620;2023-02-25T03:47:41;7.80;58.10
4103;DHT22;2065;49.790;9.620;2023-02-25T03:50:12;7.80;58.20
4103;DHT22;2065;49.790;9.620;2023-02-25T03:52:41;7.90;58.40
4103;DHT22;2065;49.790;9.620;2023-02-25T03:55:22;8.00;58.30
4103;DHT22;2065;49.790;9.620;2023-02-25T03:57:50;8.00;58.10
4103;DHT22;2065;49.790;9.620;2023-02-25T04:00:22;8.00;57.30
4103;DHT22;2065;49.790;9.620;2023-02-25T04:02:51;7.90;57.60
4103;DHT22;2065;49.790;9.620;2023-02-25T04:05:19;7.80;57.90
4103;DHT22;2065;49.790;9.620;2023-02-25T04:07:47;7.80;58.00
4103;DHT22;2065;49.790;9.620;2023-02-25T04:10:15;8.00;58.00
4103;DHT22;2065;49.790;9.620;2023-02-25T04:12:43;8.30;57.20
4103;DHT22;2065;49.790;9.620;2023-02-25T04:15:11;8.30;56.20
4103;DHT22;2065;49.790;9.620;2023-02-25T04:17:40;8.40;57.00
4103;DHT22;2065;49.790;9.620;2023-02-25T04:20:10;8.50;56.80
4103;DHT22;2065;49.790;9.620;2023-02-25T04:22:37;8.50;56.50
4103;DHT22;2065;49.790;9.620;2023-02-25T04:25:04;8.40;56.70
4103;DHT22;2065;49.790;9.620;2023-02-25T04:27:32;8.50;56.90
4103;DHT22;2065;49.790;9.620;2023-02-25T04:29:59;8.50;55.70
4103;DHT22;2065;49.790;9.620;2023-02-25T04:32:26;8.50;55.70
4103;DHT22;2065;49.790;9.620;2023-02-25T04:34:53;8.40;56.10
4103;DHT22;2065;49.790;9.620;2023-02-25T04:37:21;8.20;56.00
4103;DHT22;2065;49.790;9.620;2023-02-25T04:39:48;8.30;55.90
4103;DHT22;2065;49.790;9.620;2023-02-25T04:42:15;8.50;56.80
4103;DHT22;2065;49.790;9.620;2023-02-25T04:44:42;8.50;55.60
4103;DHT22;2065;49.790;9.620;2023-02-25T04:47:08;8.60;55.50
4103;DHT22;2065;49.790;9.620;2023-02-25T04:49:35;8.50;56.10
4103;DHT22;2065;49.790;9.620;2023-02-25T04:52:09;8.40;56.00
4103;DHT22;2065;49.790;9.620;2023-02-25T04:54:38;8.30;55.80
4103;DHT22;2065;49.790;9.620;2023-02-25T04:57:05;8.40;56.00
4103;DHT22;2065;49.790;9.620;2023-02-25T04:59:32;8.40;56.20
4103;DHT22;2065;49.790;9.620;2023-02-25T05:01:59;8.50;56.10
4103;DHT22;2065;49.790;9.620;2023-02-25T05:04:26;8.40;55.70
4103;DHT22;2065;49.790;9.620;2023-02-25T05:06:53;8.40;56.10
4103;DHT22;2065;49.790;9.620;2023-02-25T05:09:20;8.30;55.80
4103;DHT22;2065;49.790;9.620;2023-02-25T05:11:49;8.40;55.70
4103;DHT22;2065;49.790;9.620;2023-02-25T05:14:16;8.30;55.50
4103;DHT22;2065;49.790;9.620;2023-02-25T05:16:44;8.20;55.80
4103;DHT22;2065;49.790;9.620;2023-02-25T05:19:14;8.20;56.30
4103;DHT22;2065;49.790;9.620;2023-02-25T05:21:41;8.00;56.10
4103;DHT22;2065;49.790;9.620;2023-02-25T05:24:10;8.00;56.30
4103;DHT22;2065;49.790;9.620;2023-02-25T05:26:37;8.00;56.90
4103;DHT22;2065;49.790;9.620;2023-02-25T05:29:06;7.90;56.30
4103;DHT22;2065;49.790;9.620;2023-02-25T05:31:33;7.90;56.70
4103;DHT22;2065;49.790;9.620;2023-02-25T05:34:00;7.90;57.00
4103;DHT22;2065;49.790;9.620;2023-02-25T05:36:27;8.10;56.50
4103;DHT22;2065;49.790;9.620;2023-02-25T05:38:54;8.00;56.50
4103;DHT22;2065;49.790;9.620;2023-02-25T05:41:24;8.10;56.30
4103;DHT22;2065;49.790;9.620;2023-02-25T05:43:51;8.00;56.30
4103;DHT22;2065;49.790;9.620;2023-02-25T05:46:19;8.20;56.30
4103;DHT22;2065;49.790;9.620;2023-02-25T05:48:46;8.30;56.10
4103;DHT22;2065;49.790;9.620;2023-02-25T05:51:16;8.20;55.50
4103;DHT22;2065;49.790;9.620;2023-02-25T05:53:43;8.00;56.20
4103;DHT22;2065;49.790;9.620;2023-02-25T05:56:14;8.20;56.10
4103;DHT22;2065;49.790;9.620;2023-02-25T05:58:42;8.50;56.00
4103;DHT22;2065;49.790;9.620;2023-02-25T06:01:13;8.50;55.30
4103;DHT22;2065;49.790;9.620;2023-02-25T06:03:42;8.50;55.20
4103;DHT22;2065;49.790;9.620;2023-02-25T06:06:11;8.60;54.70
4103;DHT22;2065;49.790;9.620;2023-02-25T06:08:38;8.50;54.40
4103;DHT22;2065;49.790;9.620;2023-02-25T06:11:07;8.30;54.90
4103;DHT22;2065;49.790;9.620;2023-02-25T06:13:34;8.30;55.20
4103;DHT22;2065;49.790;9.620;2023-02-25T06:16:02;8.50;55.30
4103;DHT22;2065;49.790;9.620;2023-02-25T06:18:29;8.60;54.50
4103;DHT22;2065;49.790;9.620;2023-02-25T06:21:03;8.50;54.60
4103;DHT22;2065;49.790;9.620;2023-02-25T06:23:31;8.50;54.20
4103;DHT22;2065;49.790;9.620;2023-02-25T06:25:58;8.30;55.10
4103;DHT22;2065;49.790;9.620;2023-02-25T06:28:25;8.20;55.40
4103;DHT22;2065;49.790;9.620;2023-02-25T06:30:52;8.20;55.90
4103;DHT22;2065;49.790;9.620;2023-02-25T06:33:19;8.10;55.40
4103;DHT22;2065;49.790;9.620;2023-02-25T06:35:50;8.10;55.60
4103;DHT22;2065;49.790;9.620;2023-02-25T06:38:19;8.00;55.60
4103;DHT22;2065;49.790;9.620;2023-02-25T06:40:46;8.00;55.80
4103;DHT22;2065;49.790;9.620;2023-02-25T06:43:13;8.00;55.60
4103;DHT22;2065;49.790;9.620;2023-02-25T06:45:40;8.00;56.40
4103;DHT22;2065;49.790;9.620;2023-02-25T06:48:07;8.00;56.30
4103;DHT22;2065;49.790;9.620;2023-02-25T06:50:37;8.10;55.70
4103;DHT22;2065;49.790;9.620;2023-02-25T06:53:05;8.20;56.20
4103;DHT22;2065;49.790;9.620;2023-02-25T06:55:33;8.10;56.30
4103;DHT22;2065;49.790;9.620;2023-02-25T06:58:00;8.20;56.20
4103;DHT22;2065;49.790;9.620;2023-02-25T07:00:27;8.10;56.20
4103;DHT22;2065;49.790;9.620;2023-02-25T07:02:54;8.10;56.40
4103;DHT22;2065;49.790;9.620;2023-02-25T07:05:21;7.80;56.90
4103;DHT22;2065;49.790;9.620;2023-02-25T07:07:48;7.90;57.00
4103;DHT22;2065;49.790;9.620;2023-02-25T07:10:15;8.00;56.80
4103;DHT22;2065;49.790;9.620;2023-02-25T07:12:43;8.10;57.50
4103;DHT22;2065;49.790;9.620;2023-02-25T07:15:10;8.30;56.90
4103;DHT22;2065;49.790;9.620;2023-02-25T07:17:37;8.40;57.00
4103;DHT22;2065;49.790;9.620;2023-02-25T07:20:05;8.30;56.50
4103;DHT22;2065;49.790;9.620;2023-02-25T07:22:32;8.30;56.80
4103;DHT22;2065;49.790;9.620;2023-02-25T07:24:59;8.40;56.40
4103;DHT22;2065;49.790;9.620;2023-02-25T07:27:26;8.60;56.40
4103;DHT22;2065;49.790;9.620;2023-02-25T07:29:54;8.70;56.60
4103;DHT22;2065;49.790;9.620;2023-02-25T07:32:23;8.90;56.00
4103;DHT22;2065;49.790;9.620;2023-02-25T07:34:50;9.10;55.50
4103;DHT22;2065;49.790;9.620;2023-02-25T07:37:17;9.30;55.30
4103;DHT22;2065;49.790;9.620;2023-02-25T07:39:44;9.30;54.90
4103;DHT22;2065;49.790;9.620;2023-02-25T07:42:11;9.30;55.00
4103;DHT22;2065;49.790;9.620;2023-02-25T07:44:38;9.20;55.10
4103;DHT22;2065;49.790;9.620;2023-02-25T07:47:06;8.90;54.90
4103;DHT22;2065;49.790;9.620;2023-02-25T07:49:34;8.50;55.40
4103;DHT22;2065;49.790;9.620;2023-02-25T07:52:01;8.50;56.60
4103;DHT22;2065;49.790;9.620;2023-02-25T07:54:28;8.70;55.80
4103;DHT22;2065;49.790;9.620;2023-02-25T07:56:55;8.70;56.40
4103;DHT22;2065;49.790;9.620;2023-02-25T07:59:22;8.50;56.20
4103;DHT22;2065;49.790;9.620;2023-02-25T08:01:49;8.40;56.90
4103;DHT22;2065;49.790;9.620;2023-02-25T08:04:17;8.20;57.50
4103;DHT22;2065;49.790;9.620;2023-02-25T08:06:44;8.30;57.50
4103;DHT22;2065;49.790;9.620;2023-02-25T08:09:12;8.20;58.80
4103;DHT22;2065;49.790;9.620;2023-02-25T08:11:40;8.10;58.60
4103;DHT22;2065;49.790;9.620;2023-02-25T08:14:07;7.90;58.90
4103;DHT22;2065;49.790;9.620;2023-02-25T08:16:34;7.70;59.50
4103;DHT22;2065;49.790;9.620;2023-02-25T08:19:01;7.60;60.20
4103;DHT22;2065;49.790;9.620;2023-02-25T08:21:30;7.90;60.60
4103;DHT22;2065;49.790;9.620;2023-02-25T08:23:57;8.20;59.30
4103;DHT22;2065;49.790;9.620;2023-02-25T08:26:24;8.50;59.20
4103;DHT22;2065;49.790;9.620;2023-02-25T08:28:52;8.50;58.00
4103;DHT22;2065;49.790;9.620;2023-02-25T08:31:20;8.30;58.60
4103;DHT22;2065;49.790;9.620;2023-02-25T08:33:48;8.50;58.30
4103;DHT22;2065;49.790;9.620;2023-02-25T08:36:19;8.50;58.40
4103;DHT22;2065;49.790;9.620;2023-02-25T08:38:48;8.70;58.40
4103;DHT22;2065;49.790;9.620;2023-02-25T08:41:16;8.80;58.10
4103;DHT22;2065;49.790;9.620;2023-02-25T08:43:46;8.80;57.30
4103;DHT22;2065;49.790;9.620;2023-02-25T08:46:13;8.60;57.00
4103;DHT22;2065;49.790;9.620;2023-02-25T08:48:40;8.50;57.90
4103;DHT22;2065;49.790;9.620;2023-02-25T08:51:09;8.50;57.90
4103;DHT22;2065;49.790;9.620;2023-02-25T08:53:37;8.30;57.40
4103;DHT22;2065;49.790;9.620;2023-02-25T08:56:07;8.40;59.20
4103;DHT22;2065;49.790;9.620;2023-02-25T08:58:34;8.40;58.50
4103;DHT22;2065;49.790;9.620;2023-02-25T09:01:05;8.50;58.10
4103;DHT22;2065;49.790;9.620;2023-02-25T09:03:37;8.40;58.30
4103;DHT22;2065;49.790;9.620;2023-02-25T09:06:05;8.50;58.80
4103;DHT22;2065;49.790;9.620;2023-02-25T09:08:32;8.70;58.20
4103;DHT22;2065;49.790;9.620;2023-02-25T09:10:58;8.70;57.70
4103;DHT22;2065;49.790;9.620;2023-02-25T09:13:27;8.60;57.50
4103;DHT22;2065;49.790;9.620;2023-02-25T09:15:57;8.40;57.20
4103;DHT22;2065;49.790;9.620;2023-02-25T09:18:24;8.30;58.70
4103;DHT22;2065;49.790;9.620;2023-02-25T09:20:52;8.60;59.30
4103;DHT22;2065;49.790;9.620;2023-02-25T09:23:19;8.60;58.50
4103;DHT22;2065;49.790;9.620;2023-02-25T09:25:46;9.00;58.10
4103;DHT22;2065;49.790;9.620;2023-02-25T09:28:13;9.10;57.90
4103;DHT22;2065;49.790;9.620;2023-02-25T09:30:43;9.00;56.50
4103;DHT22;2065;49.790;9.620;2023-02-25T09:33:11;9.00;57.10
4103;DHT22;2065;49.790;9.620;2023-02-25T09:35:37;9.10;57.80
4103;DHT22;2065;49.790;9.620;2023-02-25T09:38:05;8.90;57.10
4103;DHT22;2065;49.790;9.620;2023-02-25T09:40:32;8.90;57.60
4103;DHT22;2065;49.790;9.620;2023-02-25T09:43:06;8.80;57.50
4103;DHT22;2065;49.790;9.620;2023-02-25T09:45:35;9.10;57.80
4103;DHT22;2065;49.790;9.620;2023-02-25T09:48:09;9.20;57.60
4103;DHT22;2065;49.790;9.620;2023-02-25T09:50:42;9.10;56.50
4103;DHT22;2065;49.790;9.620;2023-02-25T09:53:14;9.00;57.00
4103;DHT22;2065;49.790;9.620;2023-02-25T09:55:46;9.00;56.80
4103;DHT22;2065;49.790;9.620;2023-02-25T09:58:20;8.70;57.30
4103;DHT22;2065;49.790;9.620;2023-02-25T10:00:54;8.80;58.00
4103;DHT22;2065;49.790;9.620;2023-02-25T10:03:44;8.90;57.70
4103;DHT22;2065;49.790;9.620;2023-02-25T10:06:18;9.00;57.20
4103;DHT22;2065;49.790;9.620;2023-02-25T10:08:52;8.80;57.10
4103;DHT22;2065;49.790;9.620;2023-02-25T10:11:31;8.60;58.00
4103;DHT22;2065;49.790;9.620;2023-02-25T10:14:13;8.60;57.50
4103;DHT22;2065;49.790;9.620;2023-02-25T10:16:47;8.40;57.60
4103;DHT22;2065;49.790;9.620;2023-02-25T10:19:31;8.30;58.50
4103;DHT22;2065;49.790;9.620;2023-02-25T10:22:12;8.30;59.30
4103;DHT22;2065;49.790;9.620;2023-02-25T10:24:46;8.30;59.20
4103;DHT22;2065;49.790;9.620;2023-02-25T10:27:19;8.40;58.70
4103;DHT22;2065;49.790;9.620;2023-02-25T10:29:48;8.50;59.30
4103;DHT22;2065;49.790;9.620;2023-02-25T10:32:19;8.50;58.00
4103;DHT22;2065;49.790;9.620;2023-02-25T10:34:48;8.60;58.80
4103;DHT22;2065;49.790;9.620;2023-02-25T10:37:19;8.90;58.50
4103;DHT22;2065;49.790;9.620;2023-02-25T10:39:49;8.90;57.90
4103;DHT22;2065;49.790;9.620;2023-02-25T10:42:18;8.90;57.90
4103;DHT22;2065;49.790;9.620;2023-02-25T10:44:45;8.70;57.90
4103;DHT22;2065;49.790;9.620;2023-02-25T10:47:15;8.50;57.90
4103;DHT22;2065;49.790;9.620;2023-02-25T10:50:13;8.70;59.40
4103;DHT22;2065;49.790;9.620;2023-02-25T10:52:52;9.10;59.20
4103;DHT22;2065;49.790;9.620;2023-02-25T10:55:39;9.20;56.90
4103;DHT22;2065;49.790;9.620;2023-02-25T10:58:30;9.10;57.30
4103;DHT22;2065;49.790;9.620;2023-02-25T11:01:02;9.20;58.00
4103;DHT22;2065;49.790;9.620;2023-02-25T11:03:31;9.40;56.60
4103;DHT22;2065;49.790;9.620;2023-02-25T11:06:18;9.70;56.80
4103;DHT22;2065;49.790;9.620;2023-02-25T11:08:45;9.60;56.40
4103;DHT22;2065;49.790;9.620;2023-02-25T11:11:18;9.60;56.60
4103;DHT22;2065;49.790;9.620;2023-02-25T11:14:03;9.50;57.10
4103;DHT22;2065;49.790;9.620;2023-02-25T11:16:33;9.40;55.60
4103;DHT22;2065;49.790;9.620;2023-02-25T11:19:04;9.50;56.90
4103;DHT22;2065;49.790;9.620;2023-02-25T11:21:38;9.60;55.40
4103;DHT22;2065;49.790;9.620;2023-02-25T11:24:11;9.60;54.30
4103;DHT22;2065;49.790;9.620;2023-02-25T11:26:42;9.50;54.00
4103;DHT22;2065;49.790;9.620;2023-02-25T11:29:13;9.60;54.80
4103;DHT22;2065;49.790;9.620;2023-02-25T11:31:41;9.50;54.50
4103;DHT22;2065;49.790;9.620;2023-02-25T11:34:14;9.20;55.50
4103;DHT22;2065;49.790;9.620;2023-02-25T11:36:43;9.10;56.50
4103;DHT22;2065;49.790;9.620;2023-02-25T11:39:17;9.00;55.50
4103;DHT22;2065;49.790;9.620;2023-02-25T11:41:45;9.00;56.70
4103;DHT22;2065;49.790;9.620;2023-02-25T11:44:25;9.10;57.40
4103;DHT22;2065;49.790;9.620;2023-02-25T11:46:59;9.10;55.00
4103;DHT22;2065;49.790;9.620;2023-02-25T11:49:36;9.10;55.30
4103;DHT22;2065;49.790;9.620;2023-02-25T11:52:10;9.00;55.90
4103;DHT22;2065;49.790;9.620;2023-02-25T11:54:45;9.20;56.00
4103;DHT22;2065;49.790;9.620;2023-02-25T11:57:22;9.50;56.40
4103;DHT22;2065;49.790;9.620;2023-02-25T12:00:02;9.80;55.50
4103;DHT22;2065;49.790;9.620;2023-02-25T12:02:46;9.70;53.30
4103;DHT22;2065;49.790;9.620;2023-02-25T12:05:40;9.60;53.90
4103;DHT22;2065;49.790;9.620;2023-02-25T12:08:21;9.70;54.50
4103;DHT22;2065;49.790;9.620;2023-02-25T12:14:15;10.40;52.50
4103;DHT22;2065;49.790;9.620;2023-02-25T12:17:16;9.90;49.80
4103;DHT22;2065;49.790;9.620;2023-02-25T12:26:19;10.00;51.00
4103;DHT22;2065;49.790;9.620;2023-02-25T12:29:06;9.40;52.00
4103;DHT22;2065;49.790;9.620;2023-02-25T12:31:59;8.90;53.70
4103;DHT22;2065;49.790;9.620;2023-02-25T12:34:47;8.60;54.20
4103;DHT22;2065;49.790;9.620;2023-02-25T12:37:37;8.20;55.20
4103;DHT22;2065;49.790;9.620;2023-02-25T12:40:35;7.80;55.80
4103;DHT22;2065;49.790;9.620;2023-02-25T12:43:15;7.30;58.30
4103;DHT22;2065;49.790;9.620;2023-02-25T12:46:03;7.10;59.90
4103;DHT22;2065;49.790;9.620;2023-02-25T12:48:59;7.20;60.40
4103;DHT22;2065;49.790;9.620;2023-02-25T12:51:51;7.20;61.10
4103;DHT22;2065;49.790;9.620;2023-02-25T12:54:44;7.40;60.70
4103;DHT22;2065;49.790;9.620;2023-02-25T12:57:29;7.60;59.80
4103;DHT22;2065;49.790;9.620;2023-02-25T13:03:09;8.30;60.00
4103;DHT22;2065;49.790;9.620;2023-02-25T13:08:52;8.90;57.80
4103;DHT22;2065;49.790;9.620;2023-02-25T13:11:31;8.90;56.50
4103;DHT22;2065;49.790;9.620;2023-02-25T13:14:31;9.00;55.90
4103;DHT22;2065;49.790;9.620;2023-02-25T13:20:28;9.40;56.30
4103;DHT22;2065;49.790;9.620;2023-02-25T13:23:10;9.40;55.50
4103;DHT22;2065;49.790;9.620;2023-02-25T13:25:49;9.00;55.50
4103;DHT22;2065;49.790;9.620;2023-02-25T13:28:36;9.00;56.80
4103;DHT22;2065;49.790;9.620;2023-02-25T13:31:09;9.20;57.20
4103;DHT22;2065;49.790;9.620;2023-02-25T13:36:47;9.50;55.30
4103;DHT22;2065;49.790;9.620;2023-02-25T13:39:45;9.60;55.50
4103;DHT22;2065;49.790;9.620;2023-02-25T13:42:32;9.70;55.40
4103;DHT22;2065;49.790;9.620;2023-02-25T13:51:24;9.70;55.70
4103;DHT22;2065;49.790;9.620;2023-02-25T13:57:09;10.00;54.70
4103;DHT22;2065;49.790;9.620;2023-02-25T13:59:59;10.10;54.10
4103;DHT22;2065;49.790;9.620;2023-02-25T14:05:58;10.40;53.60
4103;DHT22;2065;49.790;9.620;2023-02-25T14:08:41;10.40;53.40
4103;DHT22;2065;49.790;9.620;2023-02-25T14:11:28;10.40;54.50
4103;DHT22;2065;49.790;9.620;2023-02-25T14:17:18;10.00;53.40
4103;DHT22;2065;49.790;9.620;2023-02-25T14:19:59;9.70;54.60
4103;DHT22;2065;49.790;9.620;2023-02-25T14:22:35;9.70;55.80
4103;DHT22;2065;49.790;9.620;2023-02-25T14:25:15;9.80;54.80
4103;DHT22;2065;49.790;9.620;2023-02-25T14:27:50;9.80;54.60
4103;DHT22;2065;49.790;9.620;2023-02-25T14:30:34;10.00;52.80
4103;DHT22;2065;49.790;9.620;2023-02-25T14:33:20;10.00;52.20
4103;DHT22;2065;49.790;9.620;2023-02-25T14:36:10;9.70;53.20
4103;DHT22;2065;49.790;9.620;2023-02-25T14:38:58;9.30;55.20
4103;DHT22;2065;49.790;9.620;2023-02-25T14:41:31;8.60;57.10
4103;DHT22;2065;49.790;9.620;2023-02-25T14:44:03;8.20;57.60
4103;DHT22;2065;49.790;9.620;2023-02-25T14:46:36;7.80;58.80
4103;DHT22;2065;49.790;9.620;2023-02-25T14:49:14;7.60;59.10
4103;DHT22;2065;49.790;9.620;2023-02-25T14:52:13;7.40;59.40
4103;DHT22;2065;49.790;9.620;2023-02-25T15:01:16;8.30;57.60
4103;DHT22;2065;49.790;9.620;2023-02-25T15:04:00;8.40;58.10
4103;DHT22;2065;49.790;9.620;2023-02-25T15:06:52;8.20;57.30
4103;DHT22;2065;49.790;9.620;2023-02-25T15:10:00;8.20;57.80
4103;DHT22;2065;49.790;9.620;2023-02-25T15:12:49;8.50;57.20
4103;DHT22;2065;49.790;9.620;2023-02-25T15:15:33;9.00;57.10
4103;DHT22;2065;49.790;9.620;2023-02-25T15:18:38;9.00;57.00
4103;DHT22;2065;49.790;9.620;2023-02-25T15:21:37;9.00;56.50
4103;DHT22;2065;49.790;9.620;2023-02-25T15:24:09;8.80;56.50
4103;DHT22;2065;49.790;9.620;2023-02-25T15:26:40;9.00;58.00
4103;DHT22;2065;49.790;9.620;2023-02-25T15:29:19;9.20;56.50
4103;DHT22;2065;49.790;9.620;2023-02-25T15:32:09;9.40;56.80
4103;DHT22;2065;49.790;9.620;2023-02-25T15:34:37;9.70;56.20
4103;DHT22;2065;49.790;9.620;2023-02-25T15:40:40;9.90;53.50
4103;DHT22;2065;49.790;9.620;2023-02-25T15:43:29;10.00;54.10
4103;DHT22;2065;49.790;9.620;2023-02-25T15:46:30;9.70;53.90
4103;DHT22;2065;49.790;9.620;2023-02-25T15:49:06;9.40;54.60
4103;DHT22;2065;49.790;9.620;2023-02-25T15:51:40;9.50;56.40
4103;DHT22;2065;49.790;9.620;2023-02-25T15:54:10;9.20;55.50
4103;DHT22;2065;49.790;9.620;2023-02-25T15:56:55;9.30;56.60
4103;DHT22;2065;49.790;9.620;2023-02-25T15:59:43;9.40;55.90
4103;DHT22;2065;49.790;9.620;2023-02-25T16:05:18;9.50;56.10
4103;DHT22;2065;49.790;9.620;2023-02-25T16:07:48;9.40;56.90
4103;DHT22;2065;49.790;9.620;2023-02-25T16:10:24;9.50;57.20
4103;DHT22;2065;49.790;9.620;2023-02-25T16:12:53;9.60;57.20
4103;DHT22;2065;49.790;9.620;2023-02-25T16:15:25;9.70;56.40
4103;DHT22;2065;49.790;9.620;2023-02-25T16:17:55;9.70;55.70
4103;DHT22;2065;49.790;9.620;2023-02-25T16:20:26;9.80;55.30
4103;DHT22;2065;49.790;9.620;2023-02-25T16:22:57;9.70;54.60
4103;DHT22;2065;49.790;9.620;2023-02-25T16:25:31;9.70;54.50
4103;DHT22;2065;49.790;9.620;2023-02-25T16:28:05;9.50;55.30
4103;DHT22;2065;49.790;9.620;2023-02-25T16:30:35;9.20;56.00
4103;DHT22;2065;49.790;9.620;2023-02-25T16:33:14;9.20;55.80
4103;DHT22;2065;49.790;9.620;2023-02-25T16:35:49;9.10;55.90
4103;DHT22;2065;49.790;9.620;2023-02-25T16:38:24;9.20;56.20
4103;DHT22;2065;49.790;9.620;2023-02-25T16:40:54;9.40;56.10
4103;DHT22;2065;49.790;9.620;2023-02-25T16:43:26;9.50;56.00
4103;DHT22;2065;49.790;9.620;2023-02-25T16:45:56;9.60;56.10
4103;DHT22;2065;49.790;9.620;2023-02-25T16:48:26;9.60;55.90
4103;DHT22;2065;49.790;9.620;2023-02-25T16:50:54;9.80;55.90
4103;DHT22;2065;49.790;9.620;2023-02-25T16:53:24;9.80;55.30
4103;DHT22;2065;49.790;9.620;2023-02-25T16:55:58;9.80;55.40
4103;DHT22;2065;49.790;9.620;2023-02-25T16:58:28;9.70;55.50
4103;DHT22;2065;49.790;9.620;2023-02-25T17:00:57;9.60;55.40
4103;DHT22;2065;49.790;9.620;2023-02-25T17:03:26;9.30;53.90
4103;DHT22;2065;49.790;9.620;2023-02-25T17:06:04;9.30;54.30
4103;DHT22;2065;49.790;9.620;2023-02-25T17:08:33;9.30;54.60
4103;DHT22;2065;49.790;9.620;2023-02-25T17:11:03;9.40;54.10
4103;DHT22;2065;49.790;9.620;2023-02-25T17:13:33;9.40;54.10
4103;DHT22;2065;49.790;9.620;2023-02-25T17:16:02;9.30;54.20
4103;DHT22;2065;49.790;9.620;2023-02-25T17:18:30;9.10;54.30
4103;DHT22;2065;49.790;9.620;2023-02-25T17:21:01;8.70;51.20
4103;DHT22;2065;49.790;9.620;2023-02-25T17:23:29;8.50;52.60
4103;DHT22;2065;49.790;9.620;2023-02-25T17:25:57;8.40;51.40
4103;DHT22;2065;49.790;9.620;2023-02-25T17:28:28;8.50;51.90
4103;DHT22;2065;49.790;9.620;2023-02-25T17:31:06;8.40;51.80
4103;DHT22;2065;49.790;9.620;2023-02-25T17:33:34;8.40;50.30
4103;DHT22;2065;49.790;9.620;2023-02-25T17:36:06;8.00;49.10
4103;DHT22;2065;49.790;9.620;2023-02-25T17:38:34;8.00;52.10
4103;DHT22;2065;49.790;9.620;2023-02-25T17:41:02;8.10;51.70
4103;DHT22;2065;49.790;9.620;2023-02-25T17:43:36;8.20;52.40